METAR Data
IDs: Format: Raw Decoded Include TAF

Data at: 2303 UTC 25 Oct 2021

PAJN 252253Z 00000KT 10SM -RA OVC047 04/02 A2913 RMK AO2 RAB06 SLP863 P0000 T00390017 $
PAJN 252153Z 24003KT 10SM OVC050 04/01 A2912 RMK AO2 RAB17E35 SLP860 P0000 T00390011 $
PAJN 252053Z 00000KT 10SM BKN045 OVC150 03/01 A2912 RMK AO2 SLP862 T00280011 53005 $
PAJN 251953Z 00000KT 10SM OVC150 02/01 A2912 RMK AO2 SLP859 T00220006 $
PAJN 251853Z 00000KT 10SM OVC170 02/00 A2911 RMK AO2 SLP858 T00170000 $
PAJN 251753Z 00000KT 10SM OVC170 01/M01 A2911 RMK AO2 SLP856 I1001 I6001 T00061006 10006 21022 55004 $
PAJN 251653Z 00000KT 10SM OVC170 00/M01 A2910 RMK AO2 SLP853 T00001011 $
PAJN 251553Z 12003KT 10SM BKN160 OVC220 M01/M02 A2911 RMK AO2 SLP857 T10111022 $
PAJN 251453Z 15003KT 10SM BKN180 M01/M02 A2912 RMK AO2 SLP861 I1000 I3000 T10111022 56012 $
PAJN 251353Z 23003KT 10SM MIFG FEW002 SCT190 M01/M02 A2912 RMK AO2 SLP862 MIFG SE-SW I1000 T10111022 $
PAJN 251326Z 00000KT 10SM MIFG FEW002 SCT190 M02/M03 A2913 RMK AO2 MIFG SE-SW I1000 T10171033 $
PAJN 251253Z 00000KT 10SM MIFG SCT220 M01/M03 A2914 RMK AO2 SLP868 MIFG SE AND S I1000 T10111028 $
PAJN 251153Z 00000KT 10SM MIFG FEW250 M01/M03 A2915 RMK AO2 SLP872 MIFG SE-SW I6001 T10111028 10011 21022 56010 $
PAJN 251053Z 00000KT 10SM MIFG FEW250 M02/M03 A2916 RMK AO2 SLP874 MIFG SE I1001 T10171028 $
PAJN 250953Z 00000KT 10SM MIFG FEW250 M01/M03 A2917 RMK AO2 SLP879 MIFG SE I1000 T10111028 $
PAJN 250853Z 00000KT 10SM FEW250 M01/M03 A2918 RMK AO2 SLP882 I1000 I3000 T10111028 400891017 55001 $
PAJN 250753Z 00000KT 10SM FEW250 00/M02 A2918 RMK AO2 SLP881 T00001017 $
PAJN 250653Z 00000KT 10SM FEW250 M01/M02 A2918 RMK AO2 SLP882 T10061017 $
PAJN 250553Z 00000KT 10SM FEW250 01/M01 A2919 RMK AO2 SLP883 T00111011 10078 20000 58005 $
PAJN 250453Z 00000KT 10SM SCT250 02/M01 A2919 RMK AO2 SLP884 T00171006 $
PAJN 250353Z 13003KT 10SM SCT250 02/00 A2920 RMK AO2 SLP888 T00170000 $
PAJN 250253Z 00000KT 10SM FEW220 BKN250 BKN270 03/01 A2920 RMK AO2 SLP888 T00330011 56008 $
PAJN 250153Z 11004KT 10SM FEW220 BKN250 BKN270 03/01 A2920 RMK AO2 SLP888 T00330011 $
PAJN 250053Z 26003KT 10SM FEW220 BKN250 BKN270 06/02 A2921 RMK AO2 SLP891 T00560022 $
PAJN 242353Z 00000KT 10SM FEW001 BKN250 BKN270 08/03 A2923 RMK AO2 SLP897 FU FEW001 T00780033 10089 20022 58027 $
PAJN 242253Z 26005KT 10SM BKN250 08/02 A2925 RMK AO2 SLP906 T00830022 $
PAJN 242153Z 25005KT 10SM FEW025 BKN250 08/03 A2928 RMK AO2 SLP914 T00830033 $
PAJN 242053Z 26004KT 10SM FEW005 FEW018 BKN250 07/03 A2930 RMK AO2 SLP923 T00720033 58036 $
PAJN 241953Z 00000KT 10SM FEW004 FEW015 BKN250 04/03 A2935 RMK AO2 SLP937 T00440028 $
PAJN 241853Z 30003KT 10SM BCFG FEW001 FEW015 BKN250 03/02 A2938 RMK AO2 SLP948 BCFG E-S OCNL FG OVER RWY E T00330022 $
PAJN 241753Z 00000KT 10SM BCFG FEW001 FEW012 BKN250 02/01 A2941 RMK AO2 SLP959 BCFG E-S AND W FG OVER RWY E T00220011 10028 20011 58014 $
PAJN 241713Z 18003KT 10SM BCFG FEW002 FEW005 BKN200 01/01 A2942 RMK AO2 BCFG E-S-NW FG OVER RWY E T00110006 $
PAJN 241653Z 00000KT 1/2SM FG FEW002 SCT005 BKN200 01/01 A2943 RMK AO2 SLP966 T00110006 RVRNO $
PAJN 241553Z 00000KT 1/4SM FG BKN002 BKN200 02/01 A2944 RMK AO2 SLP969 VIS HYR N T00170006 RVRNO $
PAJN 241546Z 00000KT 1/4SM FG BKN002 BKN200 02/01 A2944 RMK AO2 VIS HYR N T00220006 RVRNO $
PAJN 241527Z 00000KT 8SM BCFG SCT002 BKN200 02/01 A2944 RMK A02 VIS LWR S-W BCFG E-S-NW FG OVER RWY T00220011 $
PAJN 241457Z 00000KT 1/4SM FG OVC002 02/01 A2945 RMK AO2 THN OVC LYR T00220011 RVRNO $
PAJN 241453Z 00000KT 7SM FEW006 FEW035 SCT085 02/01 A2945 RMK AO2 SLP973 MOON DMLY VSB T00220011 58008 $
PAJN 241407Z 00000KT 8SM FEW006 FEW035 SCT085 02/01 A2947 RMK AO2 MOON DMLY VSB T00220011 $
PAJN 241353Z 00000KT 10SM FEW040 SCT085 02/01 A2947 RMK AO2 SLP979 T00170006 $
PAJN 241344Z 00000KT 1/4SM FG FEW010 SCT045 02/01 A2947 RMK AO2 T00170006 RVRNO $
PAJN 241253Z 00000KT 10SM BCFG FEW032 SCT080 01/01 A2947 RMK AO2 SLP980 T00110006 $
PAJN 241153Z 12004KT 10SM FEW035 SCT070 SCT100 02/01 A2948 RMK AO2 SLP981 60002 70020 T00170011 10067 20017 58002 $